Time;durP1;ratioP1;P1;durP2;ratioP2;P2;SDS_P1;SDS_P2;PMS_P1;PMS_P2;Temp;Humidity;BMP_temperature;BMP_pressure;BME280_temperature;BME280_humidity;BME280_pressure;Samples;Min_cycle;Max_cycle;Signal;HPM_P1;HPM_P2
2022/07/17 00:01:12;;;;;;;13.10;7.10;;;20.10;99.90;;;;;;5045775;28;20018;-69
2022/07/17 00:03:39;;;;;;;11.90;7.40;;;20.00;99.90;;;;;;5031457;28;20042;-74
2022/07/17 00:06:05;;;;;;;12.32;6.93;;;19.90;99.90;;;;;;5031215;28;20131;-74
2022/07/17 00:08:31;;;;;;;12.18;6.15;;;19.90;99.90;;;;;;5033987;28;20021;-70
2022/07/17 00:10:58;;;;;;;12.88;7.18;;;19.90;99.90;;;;;;5040915;28;20033;-77
2022/07/17 00:13:24;;;;;;;13.57;6.85;;;19.90;99.90;;;;;;5050306;28;20024;-75
2022/07/17 00:15:50;;;;;;;13.02;6.60;;;20.00;99.90;;;;;;5052851;28;20063;-73
2022/07/17 00:18:17;;;;;;;12.35;6.40;;;19.90;99.90;;;;;;5055011;28;20021;-72
2022/07/17 00:20:43;;;;;;;8.80;6.15;;;19.90;99.90;;;;;;5054799;28;20021;-72
2022/07/17 00:23:10;;;;;;;13.07;6.97;;;19.90;99.90;;;;;;5054845;28;20017;-74
2022/07/17 00:25:36;;;;;;;13.25;7.22;;;19.90;99.90;;;;;;5054198;28;20040;-76
2022/07/17 00:28:03;;;;;;;12.23;7.32;;;19.80;99.90;;;;;;5053503;28;20040;-74
2022/07/17 00:30:28;;;;;;;14.25;7.90;;;19.80;99.90;;;;;;5054658;28;20025;-76
2022/07/17 00:32:54;;;;;;;11.38;7.20;;;19.60;99.90;;;;;;5055357;28;20028;-75
2022/07/17 00:35:20;;;;;;;13.32;8.13;;;19.50;99.90;;;;;;5055164;28;20029;-76
2022/07/17 00:37:47;;;;;;;14.60;7.57;;;19.50;99.90;;;;;;5053640;28;20036;-75
2022/07/17 00:40:19;;;;;;;26.52;7.93;;;19.40;99.90;;;;;;5053124;28;20116;-75
2022/07/17 00:42:45;;;;;;;13.68;8.10;;;19.40;99.90;;;;;;5054540;28;20025;-75
2022/07/17 00:45:12;;;;;;;15.60;7.50;;;19.40;99.90;;;;;;5054690;28;20035;-75
2022/07/17 00:47:56;;;;;;;16.02;7.93;;;19.40;99.90;;;;;;5054725;28;20029;-75
2022/07/17 00:50:31;;;;;;;12.80;7.68;;;19.30;99.90;;;;;;5054841;28;20118;-74
2022/07/17 00:52:57;;;;;;;16.25;7.05;;;19.40;99.90;;;;;;5054308;28;20036;-74
2022/07/17 00:55:24;;;;;;;15.07;7.65;;;19.30;99.90;;;;;;5054790;28;20025;-75
2022/07/17 00:57:51;;;;;;;16.15;8.00;;;19.30;99.90;;;;;;5054673;28;20108;-75
2022/07/17 01:00:18;;;;;;;15.57;7.25;;;19.40;99.90;;;;;;5054407;28;20017;-71
2022/07/17 01:02:47;;;;;;;12.63;6.72;;;19.40;99.90;;;;;;5053502;28;20049;-76
2022/07/17 01:05:14;;;;;;;12.35;7.53;;;19.40;99.90;;;;;;5054403;28;20087;-76
2022/07/17 01:07:39;;;;;;;9.40;6.38;;;19.40;99.90;;;;;;5052763;28;20017;-73
2022/07/17 01:10:06;;;;;;;13.93;7.10;;;19.40;99.90;;;;;;5054380;28;20029;-76
2022/07/17 01:12:33;;;;;;;16.73;6.20;;;19.40;99.90;;;;;;5049035;28;20067;-75
2022/07/17 01:14:59;;;;;;;11.07;6.25;;;19.40;99.90;;;;;;5050056;28;20107;-75
2022/07/17 01:17:26;;;;;;;14.90;7.13;;;19.40;99.90;;;;;;5054668;28;20029;-75
2022/07/17 01:19:52;;;;;;;14.35;7.15;;;19.40;99.90;;;;;;5054649;28;20353;-75
2022/07/17 01:22:19;;;;;;;15.27;6.97;;;19.30;99.90;;;;;;5054664;28;20033;-76
2022/07/17 01:24:45;;;;;;;11.35;6.78;;;19.20;99.90;;;;;;5054202;28;20009;-75
2022/07/17 01:27:11;;;;;;;14.02;6.43;;;19.20;99.90;;;;;;5054061;28;20472;-66
2022/07/17 01:29:38;;;;;;;15.07;7.40;;;19.30;99.90;;;;;;5053762;28;20032;-75
2022/07/17 01:32:05;;;;;;;13.25;7.15;;;19.30;99.90;;;;;;5054163;28;20029;-76
2022/07/17 01:34:31;;;;;;;10.77;6.78;;;19.20;99.90;;;;;;5054319;28;20024;-74
2022/07/17 01:36:57;;;;;;;13.85;6.45;;;19.30;99.90;;;;;;5041227;28;20488;-75
2022/07/17 01:42:08;;;;;;;16.95;6.82;;;19.20;99.90;;;;;;5033803;28;20022;-76
2022/07/17 01:44:34;;;;;;;17.45;7.15;;;19.20;99.90;;;;;;5032495;28;20017;-75
2022/07/17 01:47:00;;;;;;;15.88;8.02;;;18.90;99.90;;;;;;5036621;28;20022;-70
2022/07/17 01:49:26;;;;;;;14.25;8.20;;;18.80;99.90;;;;;;5032446;28;20456;-75
2022/07/17 01:51:51;;;;;;;11.70;7.53;;;18.70;99.90;;;;;;5032299;28;20022;-75
2022/07/17 01:54:17;;;;;;;16.45;7.93;;;18.70;99.90;;;;;;5035192;28;20287;-70
2022/07/17 01:56:43;;;;;;;15.57;7.95;;;18.80;99.90;;;;;;5032574;28;20476;-76
2022/07/17 01:59:09;;;;;;;12.38;6.97;;;18.70;99.90;;;;;;5032244;28;20068;-74
2022/07/17 02:01:37;;;;;;;12.55;7.10;;;18.70;99.90;;;;;;5031931;28;20611;-66
2022/07/17 02:04:03;;;;;;;14.07;7.95;;;18.80;99.90;;;;;;5032401;28;20037;-73
2022/07/17 02:06:29;;;;;;;12.98;8.07;;;18.80;99.90;;;;;;5034973;28;20029;-76
2022/07/17 02:08:55;;;;;;;13.13;7.22;;;18.80;99.90;;;;;;5032173;28;20037;-72
2022/07/17 02:11:20;;;;;;;13.35;7.63;;;18.60;99.90;;;;;;5032397;28;20033;-75
2022/07/17 02:13:46;;;;;;;12.52;7.45;;;18.80;99.90;;;;;;5032315;28;20060;-74
2022/07/17 02:16:12;;;;;;;13.93;7.95;;;18.80;99.90;;;;;;5032488;28;20029;-75
2022/07/17 02:18:38;;;;;;;13.98;8.10;;;18.80;99.90;;;;;;5032030;28;20029;-74
2022/07/17 02:21:03;;;;;;;12.30;7.68;;;18.70;99.90;;;;;;5032370;28;20440;-75
2022/07/17 02:23:29;;;;;;;15.90;7.95;;;18.70;99.90;;;;;;5031826;28;20029;-69
2022/07/17 02:25:55;;;;;;;13.43;8.18;;;18.70;99.90;;;;;;5031865;28;20499;-73
2022/07/17 02:28:21;;;;;;;13.60;8.73;;;18.70;99.90;;;;;;5031853;28;20032;-73
2022/07/17 02:30:47;;;;;;;15.05;8.32;;;18.60;99.90;;;;;;5032063;28;20026;-72
2022/07/17 02:33:13;;;;;;;14.85;8.60;;;18.50;99.90;;;;;;5031811;28;20580;-76
2022/07/17 02:35:39;;;;;;;13.38;8.07;;;18.50;99.90;;;;;;5031659;28;20029;-76
2022/07/17 02:38:05;;;;;;;15.55;8.07;;;18.40;99.90;;;;;;5031504;28;20026;-71
2022/07/17 02:40:31;;;;;;;14.20;8.20;;;18.40;99.90;;;;;;5031803;28;20029;-73
2022/07/17 02:42:57;;;;;;;12.85;8.00;;;18.50;99.90;;;;;;5031965;28;20494;-74
2022/07/17 02:45:26;;;;;;;17.23;8.73;;;18.40;99.90;;;;;;5031969;28;20029;-72
2022/07/17 02:47:54;;;;;;;12.93;8.77;;;18.40;99.90;;;;;;5035827;28;20021;-76
2022/07/17 02:50:20;;;;;;;14.52;7.82;;;18.20;99.90;;;;;;5032258;28;20033;-74
2022/07/17 02:52:47;;;;;;;18.70;8.25;;;18.20;99.90;;;;;;5031676;28;20017;-76
2022/07/17 02:55:13;;;;;;;12.07;8.10;;;18.20;99.90;;;;;;5031913;28;20060;-70
2022/07/17 02:57:39;;;;;;;15.50;7.82;;;18.20;99.90;;;;;;5031910;28;20077;-77
2022/07/17 03:00:08;;;;;;;15.15;8.35;;;18.10;99.90;;;;;;5031579;28;20025;-75
2022/07/17 03:02:34;;;;;;;12.82;8.43;;;18.20;99.90;;;;;;5031605;28;20046;-70
2022/07/17 03:05:00;;;;;;;11.55;7.32;;;18.30;99.90;;;;;;5031721;28;20040;-75
2022/07/17 03:07:26;;;;;;;15.63;8.32;;;18.30;99.90;;;;;;5033708;28;20029;-76
2022/07/17 03:09:52;;;;;;;12.20;8.02;;;18.20;99.90;;;;;;5032631;28;20095;-63
2022/07/17 03:12:18;;;;;;;14.93;8.18;;;18.10;99.90;;;;;;5033954;28;20029;-74
2022/07/17 03:14:43;;;;;;;16.10;7.57;;;18.10;99.90;;;;;;5031513;28;20021;-75
2022/07/17 03:17:09;;;;;;;15.57;8.27;;;18.00;99.90;;;;;;5031634;28;20376;-69
2022/07/17 03:19:35;;;;;;;13.30;7.50;;;18.00;99.90;;;;;;5031631;28;20022;-75
2022/07/17 03:22:01;;;;;;;13.27;7.45;;;18.00;99.90;;;;;;5031400;28;20178;-76
2022/07/17 03:24:27;;;;;;;13.45;8.45;;;18.00;99.90;;;;;;5031072;28;20024;-75
2022/07/17 03:26:52;;;;;;;15.13;7.30;;;18.10;99.90;;;;;;5030962;28;20049;-76
2022/07/17 03:29:18;;;;;;;14.80;8.10;;;18.10;99.90;;;;;;5031073;28;20096;-71
2022/07/17 03:31:46;;;;;;;13.45;7.82;;;18.20;99.90;;;;;;5013060;28;20068;-75
2022/07/17 03:34:13;;;;;;;16.08;7.60;;;18.10;99.90;;;;;;5030578;28;20026;-77
2022/07/17 03:36:39;;;;;;;15.02;7.78;;;18.20;99.90;;;;;;5030573;28;20025;-76
2022/07/17 03:39:05;;;;;;;13.70;7.53;;;18.20;99.90;;;;;;5031156;28;20024;-75
2022/07/17 03:41:31;;;;;;;14.48;7.57;;;18.20;99.90;;;;;;5034159;28;20034;-76
2022/07/17 03:43:57;;;;;;;11.93;7.28;;;18.30;99.90;;;;;;5037598;28;20019;-76
2022/07/17 03:46:23;;;;;;;11.27;7.10;;;18.10;99.90;;;;;;5030500;28;20476;-75
2022/07/17 03:48:49;;;;;;;11.50;6.72;;;18.10;99.90;;;;;;5035140;28;20029;-74
2022/07/17 03:51:15;;;;;;;11.95;7.18;;;18.20;99.90;;;;;;5030080;28;20037;-76
2022/07/17 03:53:40;;;;;;;11.23;7.07;;;18.40;99.90;;;;;;5030395;28;20483;-76
2022/07/17 03:56:06;;;;;;;14.38;6.72;;;18.30;99.90;;;;;;5030617;28;20468;-76
2022/07/17 03:58:32;;;;;;;10.93;6.93;;;18.30;99.90;;;;;;5031001;28;20092;-77
2022/07/17 04:00:58;;;;;;;12.93;7.63;;;18.40;99.90;;;;;;5030669;28;20039;-76
2022/07/17 04:03:25;;;;;;;15.20;6.80;;;18.40;99.90;;;;;;5038025;28;20034;-74
2022/07/17 04:05:50;;;;;;;12.73;7.88;;;18.60;99.90;;;;;;5036771;28;20439;-75
2022/07/17 04:08:18;;;;;;;13.50;8.18;;;18.60;99.90;;;;;;5034795;28;20028;-76
2022/07/17 04:10:44;;;;;;;13.35;7.55;;;18.50;99.90;;;;;;5038062;28;20033;-77
2022/07/17 04:13:10;;;;;;;14.13;7.93;;;18.60;99.90;;;;;;5032078;28;20026;-76
2022/07/17 04:15:49;;;;;;;14.30;7.30;;;19.00;99.90;;;;;;5030934;28;20022;-72
2022/07/17 04:18:27;;;;;;;20.77;7.80;;;19.00;99.90;;;;;;5034626;28;20025;-76
2022/07/17 04:20:55;;;;;;;11.15;6.82;;;19.50;99.90;;;;;;5030542;28;20033;-63
2022/07/17 04:23:21;;;;;;;16.13;6.95;;;19.40;99.90;;;;;;5015171;28;20030;-76
2022/07/17 04:25:47;;;;;;;14.23;8.02;;;19.40;99.90;;;;;;5051926;28;20037;-76
2022/07/17 04:28:13;;;;;;;10.85;6.30;;;19.20;99.90;;;;;;5051618;28;20028;-77
2022/07/17 04:30:39;;;;;;;11.88;6.72;;;19.60;99.90;;;;;;5051226;28;20063;-77
2022/07/17 04:33:05;;;;;;;22.45;7.55;;;19.40;99.90;;;;;;5051336;28;20052;-77
2022/07/17 04:35:31;;;;;;;12.13;7.35;;;19.40;99.90;;;;;;5051390;28;20435;-77
2022/07/17 04:37:57;;;;;;;12.65;7.45;;;19.40;99.90;;;;;;5049158;28;20029;-76
2022/07/17 04:40:23;;;;;;;12.80;7.15;;;19.30;99.90;;;;;;5049030;28;20113;-77
2022/07/17 04:42:49;;;;;;;12.93;6.68;;;19.50;99.90;;;;;;5050744;28;20029;-77
2022/07/17 04:45:15;;;;;;;13.68;6.85;;;19.40;99.90;;;;;;5050884;28;20025;-76
2022/07/17 04:47:42;;;;;;;14.75;7.07;;;19.60;99.90;;;;;;5050779;28;20061;-77
2022/07/17 04:50:09;;;;;;;10.68;7.30;;;19.70;99.90;;;;;;5051293;28;20032;-77
2022/07/17 04:52:36;;;;;;;12.50;6.47;;;19.70;99.90;;;;;;5051241;28;20078;-77
2022/07/17 04:55:05;;;;;;;10.73;6.63;;;19.90;99.90;;;;;;5051221;28;20025;-77
2022/07/17 04:57:31;;;;;;;11.63;6.90;;;19.90;99.90;;;;;;5051578;28;20104;-77
2022/07/17 04:59:56;;;;;;;12.70;6.47;;;20.10;99.90;;;;;;5051227;28;20083;-75
2022/07/17 05:02:23;;;;;;;10.52;6.95;;;20.10;99.90;;;;;;5053250;28;20064;-75
2022/07/17 05:04:49;;;;;;;13.55;7.25;;;20.20;99.90;;;;;;5054727;28;20111;-76
2022/07/17 05:07:15;;;;;;;12.13;6.90;;;20.20;99.90;;;;;;5054565;28;20128;-78
2022/07/17 05:09:41;;;;;;;13.27;6.88;;;20.30;99.90;;;;;;5035920;28;20029;-73
2022/07/17 05:12:07;;;;;;;13.65;7.50;;;20.40;99.90;;;;;;5054557;28;20029;-77
2022/07/17 05:14:34;;;;;;;11.57;7.72;;;20.40;99.90;;;;;;5055052;28;20029;-76
2022/07/17 05:17:00;;;;;;;14.68;7.60;;;20.40;99.90;;;;;;5054577;28;20464;-77
2022/07/17 05:19:26;;;;;;;9.95;6.68;;;20.40;99.90;;;;;;5054641;28;20505;-77
2022/07/17 05:21:52;;;;;;;10.80;6.13;;;20.60;99.90;;;;;;5055063;28;20029;-76
2022/07/17 05:24:18;;;;;;;14.88;6.70;;;20.70;99.90;;;;;;5054609;28;20036;-75
2022/07/17 05:26:44;;;;;;;14.98;7.20;;;20.70;99.90;;;;;;5054284;28;20033;-76
2022/07/17 05:29:10;;;;;;;12.52;6.43;;;20.70;99.90;;;;;;5054091;28;20096;-74
2022/07/17 05:31:36;;;;;;;14.68;6.47;;;20.80;99.90;;;;;;5053747;28;20111;-74
2022/07/17 05:34:01;;;;;;;12.82;6.45;;;20.80;99.90;;;;;;5054040;28;20029;-77
2022/07/17 05:36:27;;;;;;;11.90;6.35;;;20.80;99.90;;;;;;5053503;28;20047;-62
2022/07/17 05:38:53;;;;;;;10.75;5.78;;;20.90;99.90;;;;;;5053661;28;20049;-76
2022/07/17 05:41:19;;;;;;;10.77;6.68;;;21.10;99.90;;;;;;5054504;28;20025;-62
2022/07/17 05:43:45;;;;;;;13.63;6.00;;;21.30;99.90;;;;;;5053574;28;20029;-76
2022/07/17 05:46:11;;;;;;;14.48;6.55;;;21.50;99.90;;;;;;5053154;28;20436;-76
2022/07/17 05:48:37;;;;;;;9.75;5.63;;;21.60;99.90;;;;;;5053047;28;20021;-73
2022/07/17 05:51:02;;;;;;;10.07;6.40;;;21.40;99.90;;;;;;5040030;28;20064;-65
2022/07/17 05:53:28;;;;;;;12.00;5.75;;;21.60;99.90;;;;;;5045259;28;20078;-71
2022/07/17 05:55:54;;;;;;;10.85;5.88;;;21.70;99.90;;;;;;5053763;28;20094;-75
2022/07/17 05:58:20;;;;;;;10.90;6.28;;;21.80;99.90;;;;;;5053615;28;20024;-73
2022/07/17 06:00:46;;;;;;;11.63;5.95;;;21.80;99.90;;;;;;5054281;28;20057;-75
2022/07/17 06:03:12;;;;;;;10.38;5.82;;;22.00;99.90;;;;;;5053940;28;20041;-63
2022/07/17 06:05:37;;;;;;;13.20;7.20;;;22.30;99.90;;;;;;5054182;28;20123;-63
2022/07/17 06:08:03;;;;;;;12.05;6.13;;;22.50;99.90;;;;;;5054390;28;20025;-72
2022/07/17 06:10:30;;;;;;;12.63;5.95;;;22.70;99.90;;;;;;5054533;28;20036;-73
2022/07/17 06:12:56;;;;;;;10.68;5.57;;;22.90;99.90;;;;;;5053724;28;20029;-76
2022/07/17 06:15:22;;;;;;;10.85;5.30;;;22.90;99.90;;;;;;5053996;28;20040;-76
2022/07/17 06:17:48;;;;;;;9.02;5.03;;;23.10;99.10;;;;;;5054161;28;20112;-76
2022/07/17 06:20:15;;;;;;;9.02;5.18;;;23.00;99.00;;;;;;5053817;28;20025;-74
2022/07/17 06:22:42;;;;;;;11.38;6.70;;;23.00;99.00;;;;;;5053962;28;20017;-76
2022/07/17 06:25:09;;;;;;;7.88;5.25;;;23.00;99.80;;;;;;5053066;28;20029;-71
2022/07/17 06:27:35;;;;;;;14.55;6.03;;;22.90;99.70;;;;;;5054040;28;20040;-76
2022/07/17 06:30:01;;;;;;;17.15;5.47;;;22.90;99.80;;;;;;5053627;28;20017;-74
2022/07/17 06:32:27;;;;;;;14.00;5.88;;;23.10;99.90;;;;;;5053584;28;20029;-76
2022/07/17 06:34:53;;;;;;;14.18;5.97;;;23.10;99.90;;;;;;5053459;28;20024;-75
2022/07/17 06:37:19;;;;;;;11.40;5.18;;;23.30;99.90;;;;;;5053323;28;20082;-76
2022/07/17 06:39:45;;;;;;;8.38;5.18;;;23.30;98.90;;;;;;5053557;28;20103;-71
2022/07/17 06:42:11;;;;;;;7.25;4.70;;;23.30;98.10;;;;;;5035691;28;20488;-76
2022/07/17 06:44:37;;;;;;;12.98;4.63;;;23.40;98.50;;;;;;5053953;28;20389;-76
2022/07/17 06:47:03;;;;;;;11.60;4.38;;;23.50;95.80;;;;;;5053173;28;20040;-71
2022/07/17 06:49:29;;;;;;;7.90;3.90;;;23.80;94.10;;;;;;5053574;28;20017;-76
2022/07/17 06:51:55;;;;;;;6.03;3.47;;;24.30;93.30;;;;;;5053339;28;20032;-76
2022/07/17 06:54:23;;;;;;;10.90;4.45;;;24.60;90.50;;;;;;5053230;28;20019;-76
2022/07/17 06:56:49;;;;;;;10.13;3.10;;;24.80;85.50;;;;;;5052635;28;20056;-76
2022/07/17 06:59:15;;;;;;;8.13;3.72;;;25.20;82.10;;;;;;5053555;28;20028;-76
2022/07/17 07:01:41;;;;;;;6.75;3.28;;;25.50;82.10;;;;;;5034820;28;20041;-73
2022/07/17 07:04:07;;;;;;;9.48;3.20;;;25.50;77.50;;;;;;5053240;28;20041;-68
2022/07/17 07:06:32;;;;;;;4.18;2.58;;;25.70;75.00;;;;;;5052819;28;20051;-71
2022/07/17 07:08:58;;;;;;;4.55;2.70;;;25.50;73.30;;;;;;5052576;28;20017;-77
2022/07/17 07:11:24;;;;;;;5.15;2.70;;;25.60;71.10;;;;;;5052866;28;20029;-70
2022/07/17 07:13:50;;;;;;;6.97;3.13;;;26.10;71.90;;;;;;5052731;28;20039;-77
2022/07/17 07:16:16;;;;;;;9.07;2.97;;;26.40;71.20;;;;;;5052509;28;20025;-77
2022/07/17 07:18:42;;;;;;;4.63;2.67;;;26.60;71.30;;;;;;5051938;28;20097;-76
2022/07/17 07:21:08;;;;;;;2.53;1.85;;;26.50;68.20;;;;;;5051728;28;20028;-76
2022/07/17 07:23:36;;;;;;;7.03;2.28;;;26.20;64.80;;;;;;5052381;28;20142;-75
2022/07/17 07:26:02;;;;;;;3.78;2.53;;;26.10;64.40;;;;;;5052563;28;20052;-77
2022/07/17 07:28:27;;;;;;;2.95;1.85;;;25.90;64.00;;;;;;5052488;28;20057;-77
2022/07/17 07:30:53;;;;;;;4.55;2.28;;;26.10;64.10;;;;;;5052361;28;20033;-76
2022/07/17 07:33:19;;;;;;;6.20;2.72;;;25.90;63.50;;;;;;5051905;28;20076;-75
2022/07/17 07:35:45;;;;;;;5.05;2.17;;;25.60;63.80;;;;;;5052238;28;20071;-76
2022/07/17 07:38:11;;;;;;;4.72;2.28;;;25.60;64.80;;;;;;5053548;28;20017;-76
2022/07/17 07:40:37;;;;;;;2.13;1.90;;;25.90;65.40;;;;;;5052889;28;20112;-76
2022/07/17 07:43:03;;;;;;;4.25;2.15;;;25.90;62.10;;;;;;5052466;28;20025;-74
2022/07/17 07:45:30;;;;;;;2.25;1.75;;;25.80;63.60;;;;;;5052688;28;20365;-77
2022/07/17 07:47:56;;;;;;;3.22;2.10;;;25.60;62.10;;;;;;5052972;28;20471;-77
2022/07/17 07:50:24;;;;;;;5.13;2.30;;;25.40;62.50;;;;;;5052178;28;20025;-76
2022/07/17 07:52:51;;;;;;;3.75;2.17;;;25.30;61.50;;;;;;5052478;28;20016;-76
2022/07/17 07:55:17;;;;;;;3.55;1.95;;;25.20;61.70;;;;;;5052978;28;20036;-77
2022/07/17 07:57:43;;;;;;;3.05;1.98;;;25.00;62.10;;;;;;5052210;28;20010;-75
2022/07/17 08:00:11;;;;;;;3.40;1.80;;;25.60;62.80;;;;;;5051944;28;20032;-77
2022/07/17 08:02:41;;;;;;;2.80;1.90;;;25.90;61.60;;;;;;5052241;28;20041;-76
2022/07/17 08:05:07;;;;;;;2.80;1.80;;;26.00;61.30;;;;;;5051541;28;20025;-78
2022/07/17 08:07:35;;;;;;;3.35;1.92;;;26.20;60.70;;;;;;5051127;28;20029;-76
2022/07/17 08:10:04;;;;;;;3.45;1.60;;;23.50;62.10;;;;;;5051920;28;20031;-76
2022/07/17 08:12:30;;;;;;;3.55;2.05;;;27.10;62.20;;;;;;5052368;28;20029;-76
2022/07/17 08:14:56;;;;;;;2.50;1.60;;;;;;;;;;5052039;28;20115;-76
2022/07/17 08:17:22;;;;;;;3.97;1.98;;;29.10;58.90;;;;;;5052042;28;20079;-77
2022/07/17 08:19:48;;;;;;;5.28;2.42;;;26.90;58.50;;;;;;5052281;28;20563;-77
2022/07/17 08:22:16;;;;;;;3.38;2.20;;;27.50;60.40;;;;;;5052009;28;20091;-77
2022/07/17 08:24:41;;;;;;;3.05;1.75;;;27.50;57.50;;;;;;5051922;28;20048;-76
2022/07/17 08:27:07;;;;;;;2.63;1.90;;;;;;;;;;5052051;28;20058;-77
2022/07/17 08:29:34;;;;;;;6.05;2.22;;;;;;;;;;5051685;28;20104;-76
2022/07/17 08:31:59;;;;;;;4.65;1.58;;;27.40;66.20;;;;;;5050060;28;20444;-76
2022/07/17 08:34:25;;;;;;;3.22;1.88;;;27.50;66.10;;;;;;5052192;28;20068;-72
2022/07/17 08:36:51;;;;;;;3.08;1.63;;;27.60;65.70;;;;;;5053726;28;20049;-77
2022/07/17 08:39:17;;;;;;;7.90;2.65;;;27.90;58.20;;;;;;5056055;28;20028;-77
2022/07/17 08:41:43;;;;;;;2.75;2.00;;;27.50;59.10;;;;;;5054367;28;20480;-77
2022/07/17 08:44:11;;;;;;;5.57;2.13;;;27.60;58.20;;;;;;5055985;28;20078;-77
2022/07/17 08:46:38;;;;;;;2.42;1.73;;;27.60;58.90;;;;;;5054087;28;20041;-74
2022/07/17 08:49:06;;;;;;;2.70;1.73;;;27.80;59.50;;;;;;5055688;28;20021;-76
2022/07/17 08:51:33;;;;;;;1.80;1.40;;;;;;;;;;5055649;28;20028;-76
2022/07/17 08:54:00;;;;;;;4.20;2.20;;;;;;;;;;5055926;28;20021;-77
2022/07/17 08:56:27;;;;;;;4.60;1.92;;;28.80;60.00;;;;;;5055569;28;20034;-77
2022/07/17 08:58:55;;;;;;;1.75;1.58;;;28.60;67.90;;;;;;5055485;28;20108;-65
2022/07/17 09:01:21;;;;;;;2.00;1.50;;;28.20;59.80;;;;;;5053881;28;20178;-74
2022/07/17 09:04:09;;;;;;;1.27;1.10;;;28.00;56.20;;;;;;5055254;28;20041;-76
2022/07/17 09:06:37;;;;;;;4.65;2.17;;;27.80;56.80;;;;;;5055450;28;20507;-76
2022/07/17 09:09:11;;;;;;;2.45;1.48;;;27.80;79.20;;;;;;5055441;28;20029;-76
2022/07/17 09:11:50;;;;;;;2.65;1.40;;;27.50;56.20;;;;;;5055125;28;20090;-76
2022/07/17 09:14:17;;;;;;;3.58;1.23;;;27.50;56.50;;;;;;5055345;28;20032;-77
2022/07/17 09:16:58;;;;;;;2.53;1.35;;;27.60;55.90;;;;;;5054337;28;20029;-75
2022/07/17 09:19:32;;;;;;;6.65;1.75;;;27.80;55.20;;;;;;5052694;28;20475;-75
2022/07/17 09:22:07;;;;;;;2.60;1.45;;;27.90;56.10;;;;;;5034692;28;20017;-77
2022/07/17 09:24:55;;;;;;;2.13;1.63;;;27.70;55.30;;;;;;5035730;28;20223;-76
2022/07/17 09:27:23;;;;;;;4.53;1.58;;;27.70;55.70;;;;;;5035213;28;20034;-69
2022/07/17 09:30:11;;;;;;;4.20;1.77;;;28.00;60.70;;;;;;5033553;28;20029;-66
2022/07/17 09:32:40;;;;;;;2.55;1.58;;;28.50;70.10;;;;;;5036677;28;20049;-70
2022/07/17 09:35:08;;;;;;;4.32;1.60;;;28.50;54.60;;;;;;5037296;28;20075;-79
2022/07/17 09:37:35;;;;;;;4.22;1.70;;;28.40;53.90;;;;;;5036320;28;20108;-73
2022/07/17 09:40:08;;;;;;;3.17;1.48;;;28.40;55.00;;;;;;5033482;28;20461;-76
2022/07/17 09:42:34;;;;;;;2.45;1.30;;;28.10;53.50;;;;;;5040868;28;20057;-70
2022/07/17 09:45:03;;;;;;;2.72;1.40;;;27.90;53.20;;;;;;5054118;28;20021;-76
2022/07/17 09:47:31;;;;;;;4.22;1.33;;;28.20;52.60;;;;;;5032438;28;20029;-77
2022/07/17 09:49:58;;;;;;;1.98;1.33;;;28.40;52.60;;;;;;5032927;28;20473;-77
2022/07/17 09:52:27;;;;;;;3.85;1.45;;;28.30;52.90;;;;;;5033047;28;20025;-78
2022/07/17 09:54:54;;;;;;;2.05;1.10;;;28.00;51.70;;;;;;5042021;28;20052;-78
2022/07/17 09:57:33;;;;;;;3.80;1.23;;;;;;;;;;5054604;28;20391;-75
2022/07/17 10:00:03;;;;;;;1.48;1.30;;;27.70;51.90;;;;;;5053600;28;20484;-77
2022/07/17 10:02:45;;;;;;;2.95;1.50;;;28.20;53.60;;;;;;5048719;28;20049;-78
2022/07/17 10:05:12;;;;;;;2.15;1.00;;;28.30;53.20;;;;;;5053935;28;20122;-78
2022/07/17 10:07:45;;;;;;;3.42;1.13;;;28.20;52.20;;;;;;5054399;28;20021;-72
2022/07/17 10:10:13;;;;;;;2.65;1.30;;;28.20;52.60;;;;;;5054380;28;20027;-77
2022/07/17 10:12:44;;;;;;;3.13;1.67;;;27.80;52.70;;;;;;5050791;28;20025;-75
2022/07/17 10:15:10;;;;;;;2.10;1.00;;;28.00;52.60;;;;;;5049663;28;20021;-75
2022/07/17 10:17:36;;;;;;;3.97;1.42;;;28.00;54.60;;;;;;5053834;28;20472;-77
2022/07/17 10:20:06;;;;;;;2.13;1.50;;;28.00;53.20;;;;;;5054259;28;20036;-75
2022/07/17 10:22:46;;;;;;;2.65;1.40;;;28.30;53.80;;;;;;5053950;28;20407;-77
2022/07/17 10:25:14;;;;;;;4.88;1.58;;;;;;;;;;5053980;28;20045;-77
2022/07/17 10:27:50;;;;;;;2.53;1.45;;;29.00;52.70;;;;;;5054169;28;20036;-78
2022/07/17 10:30:34;;;;;;;1.35;1.20;;;28.60;52.10;;;;;;5049998;28;20491;-77
2022/07/17 10:33:05;;;;;;;3.50;1.50;;;28.40;52.20;;;;;;5050881;28;20395;-78
2022/07/17 10:35:45;;;;;;;2.17;1.30;;;28.30;51.80;;;;;;5053544;28;20021;-76
2022/07/17 10:38:12;;;;;;;1.63;1.20;;;28.50;53.30;;;;;;5053742;28;20021;-76
2022/07/17 10:40:39;;;;;;;2.40;1.05;;;28.30;51.00;;;;;;5053058;28;20027;-76
2022/07/17 10:43:06;;;;;;;2.80;1.20;;;28.00;50.80;;;;;;5053321;28;20017;-77
2022/07/17 10:45:35;;;;;;;1.73;1.30;;;28.20;51.80;;;;;;5053928;28;20080;-76
2022/07/17 10:48:11;;;;;;;1.70;1.10;;;28.00;52.50;;;;;;5052799;28;20052;-76
2022/07/17 10:50:41;;;;;;;1.75;1.33;;;28.50;53.00;;;;;;5053134;28;20028;-77
2022/07/17 10:53:45;;;;;;;1.77;1.23;;;28.20;51.60;;;;;;5053404;28;20529;-77
2022/07/17 10:56:13;;;;;;;1.63;1.20;;;28.20;52.30;;;;;;4971205;28;20442;-78
2022/07/17 10:58:42;;;;;;;3.42;1.33;;;28.40;53.80;;;;;;4970930;28;20148;-77
2022/07/17 11:01:16;;;;;;;4.80;1.70;;;28.10;52.10;;;;;;4971529;28;20066;-77
2022/07/17 11:03:53;;;;;;;2.35;1.20;;;28.20;52.70;;;;;;4972227;28;20090;-77
2022/07/17 11:06:21;;;;;;;3.95;1.52;;;28.20;54.20;;;;;;4969974;28;20134;-76
2022/07/17 11:08:49;;;;;;;3.70;1.33;;;28.00;53.00;;;;;;4970355;28;20030;-77
2022/07/17 11:11:17;;;;;;;4.50;1.63;;;28.10;52.80;;;;;;4971417;28;20023;-77
2022/07/17 11:13:43;;;;;;;2.28;1.13;;;28.10;52.70;;;;;;4971749;28;20098;-72
2022/07/17 11:16:09;;;;;;;1.85;1.20;;;28.20;53.00;;;;;;4970994;28;20125;-77
2022/07/17 11:18:36;;;;;;;3.40;1.63;;;28.20;53.00;;;;;;4971320;28;20114;-77
2022/07/17 11:21:04;;;;;;;3.38;1.58;;;28.10;53.00;;;;;;4971697;28;20031;-76
2022/07/17 11:23:32;;;;;;;4.25;1.40;;;28.20;52.30;;;;;;4970680;28;20031;-76
2022/07/17 11:26:01;;;;;;;3.15;1.00;;;28.00;52.10;;;;;;4970037;28;20526;-79
2022/07/17 11:28:37;;;;;;;4.78;1.60;;;27.90;52.60;;;;;;4971014;28;20035;-77
2022/07/17 11:31:22;;;;;;;2.53;1.50;;;27.80;51.80;;;;;;4986170;28;20387;-77
2022/07/17 11:33:53;;;;;;;1.88;1.33;;;28.10;52.70;;;;;;5051597;28;20064;-77
2022/07/17 11:36:27;;;;;;;2.42;1.40;;;28.30;52.00;;;;;;5052071;28;20025;-77
2022/07/17 11:38:56;;;;;;;3.10;1.65;;;28.20;52.40;;;;;;5051853;28;20021;-78
2022/07/17 11:41:37;;;;;;;2.72;1.55;;;28.20;53.20;;;;;;5052421;28;20040;-78
2022/07/17 11:44:05;;;;;;;1.52;1.10;;;28.00;51.40;;;;;;5052513;28;20111;-72
2022/07/17 11:46:33;;;;;;;2.38;1.50;;;27.90;51.80;;;;;;5052505;28;20025;-78
2022/07/17 11:48:59;;;;;;;2.75;1.10;;;28.10;51.90;;;;;;5052215;28;20025;-77
2022/07/17 11:51:43;;;;;;;2.10;1.45;;;28.20;52.90;;;;;;5052389;28;20102;-77
2022/07/17 11:54:12;;;;;;;3.50;1.40;;;28.00;51.70;;;;;;5052129;28;20032;-78
2022/07/17 11:56:39;;;;;;;4.13;1.52;;;28.00;52.20;;;;;;5052476;28;20029;-77
2022/07/17 11:59:06;;;;;;;3.13;1.58;;;28.00;52.20;;;;;;5048223;28;20029;-74
2022/07/17 12:01:44;;;;;;;3.28;1.40;;;28.20;52.80;;;;;;5051994;28;20151;-76
2022/07/17 12:04:13;;;;;;;1.38;1.25;;;28.10;52.80;;;;;;5052139;28;20087;-78
2022/07/17 12:06:39;;;;;;;3.08;1.50;;;28.00;51.50;;;;;;5049703;28;20067;-72
2022/07/17 12:09:06;;;;;;;2.35;1.70;;;28.10;52.30;;;;;;5043414;28;20056;-76
2022/07/17 12:11:32;;;;;;;1.60;1.40;;;28.30;52.10;;;;;;5045587;28;20035;-73
2022/07/17 12:14:07;;;;;;;4.20;1.50;;;28.20;53.20;;;;;;5050756;28;20411;-78
2022/07/17 12:16:35;;;;;;;4.18;1.30;;;28.40;52.20;;;;;;5052350;28;20446;-75
2022/07/17 12:19:15;;;;;;;1.58;1.20;;;28.30;53.20;;;;;;5052147;28;20013;-76
2022/07/17 12:22:02;;;;;;;3.10;1.13;;;28.10;53.10;;;;;;5052037;28;20431;-78
2022/07/17 12:24:31;;;;;;;2.50;1.48;;;28.10;52.70;;;;;;5050677;28;20407;-73
2022/07/17 12:27:03;;;;;;;2.42;1.25;;;28.30;52.60;;;;;;5051058;28;20499;-77
2022/07/17 12:29:29;;;;;;;2.95;1.45;;;28.10;51.90;;;;;;5051685;28;20029;-77
2022/07/17 12:32:04;;;;;;;2.95;1.30;;;27.90;52.70;;;;;;5050776;28;20021;-76
2022/07/17 12:34:30;;;;;;;3.90;1.42;;;28.00;52.10;;;;;;5051058;28;20485;-76
2022/07/17 12:36:56;;;;;;;2.92;1.42;;;27.90;51.70;;;;;;5051674;28;20021;-76
2022/07/17 12:39:22;;;;;;;3.65;1.35;;;28.30;53.60;;;;;;5051509;28;20380;-77
2022/07/17 12:41:47;;;;;;;2.45;1.50;;;28.20;52.20;;;;;;5052153;28;20021;-77
2022/07/17 12:44:13;;;;;;;2.67;1.23;;;28.10;51.30;;;;;;5051805;28;20037;-77
2022/07/17 12:46:39;;;;;;;4.63;1.60;;;27.90;51.30;;;;;;5051778;28;20068;-77
2022/07/17 12:49:05;;;;;;;5.30;1.15;;;27.90;51.20;;;;;;5051870;28;20036;-77